Terminal Aerodrome Forecast
Issued by NWS

Home | Current Version | Previous Version | Text Only | Print | Product List | Glossary Off
Versions: 1 2 3 4 5 6 7 8 9 10 11 12 13 14 15 16 17 18 19 20 21 22 23 24 25 26 27 28 29 30 31 32 33 34 35 36 37 38 39 40 41 42 43 44 45 46

278
FTUS43 KGRB 221139
TAFATW
TAF
KATW 221139Z 2212/2312 04015G25KT 2SM -RA BR OVC002
      TEMPO 2212/2215 1SM -RASN BR OVC002
     FM221500 04014G27KT 2SM -RA BR OVC002
     FM230000 03016G27KT 2SM -RASN BR OVC003
     FM230300 03015G25KT 1SM -FZDZSN OVC006
     FM231000 02015G23KT 1 1/2SM -SN OVC007=

USA.gov is the U.S. government's official web portal to all federal, state and local government web resources and services.